sensor_id;sensor_type;location;lat;lon;timestamp;P1;durP1;ratioP1;P2;durP2;ratioP2
81298;SDS011;70766;53.170;18.160;2023-11-19T00:01:40;40.50;;;16.30;;
81298;SDS011;70766;53.170;18.160;2023-11-19T00:04:10;38.30;;;16.00;;
81298;SDS011;70766;53.170;18.160;2023-11-19T00:06:42;40.30;;;14.90;;
81298;SDS011;70766;53.170;18.160;2023-11-19T00:09:11;43.20;;;16.30;;
81298;SDS011;70766;53.170;18.160;2023-11-19T00:11:40;45.10;;;16.70;;
81298;SDS011;70766;53.170;18.160;2023-11-19T00:14:21;43.00;;;16.70;;
81298;SDS011;70766;53.170;18.160;2023-11-19T00:16:49;45.70;;;17.40;;
81298;SDS011;70766;53.170;18.160;2023-11-19T00:19:19;47.40;;;19.50;;
81298;SDS011;70766;53.170;18.160;2023-11-19T00:21:49;45.80;;;18.40;;
81298;SDS011;70766;53.170;18.160;2023-11-19T00:24:20;45.20;;;17.30;;
81298;SDS011;70766;53.170;18.160;2023-11-19T00:26:53;43.60;;;17.70;;
81298;SDS011;70766;53.170;18.160;2023-11-19T00:29:21;47.30;;;17.20;;
81298;SDS011;70766;53.170;18.160;2023-11-19T00:31:49;40.20;;;16.40;;
81298;SDS011;70766;53.170;18.160;2023-11-19T00:34:19;44.30;;;17.60;;
81298;SDS011;70766;53.170;18.160;2023-11-19T00:36:49;43.80;;;16.10;;
81298;SDS011;70766;53.170;18.160;2023-11-19T00:39:17;42.10;;;15.80;;
81298;SDS011;70766;53.170;18.160;2023-11-19T00:41:45;35.10;;;13.90;;
81298;SDS011;70766;53.170;18.160;2023-11-19T00:44:14;40.80;;;14.60;;
81298;SDS011;70766;53.170;18.160;2023-11-19T00:46:42;37.50;;;15.00;;
81298;SDS011;70766;53.170;18.160;2023-11-19T00:49:10;39.60;;;14.90;;
81298;SDS011;70766;53.170;18.160;2023-11-19T00:51:39;41.30;;;16.00;;
81298;SDS011;70766;53.170;18.160;2023-11-19T00:54:07;36.60;;;14.50;;
81298;SDS011;70766;53.170;18.160;2023-11-19T00:56:35;42.00;;;17.10;;
81298;SDS011;70766;53.170;18.160;2023-11-19T00:59:05;46.60;;;17.60;;
81298;SDS011;70766;53.170;18.160;2023-11-19T01:01:33;48.10;;;18.60;;
81298;SDS011;70766;53.170;18.160;2023-11-19T01:04:01;51.40;;;19.30;;
81298;SDS011;70766;53.170;18.160;2023-11-19T01:06:30;44.00;;;16.20;;
81298;SDS011;70766;53.170;18.160;2023-11-19T01:08:58;47.40;;;17.10;;
81298;SDS011;70766;53.170;18.160;2023-11-19T01:11:26;53.20;;;18.90;;
81298;SDS011;70766;53.170;18.160;2023-11-19T01:13:55;52.20;;;19.50;;
81298;SDS011;70766;53.170;18.160;2023-11-19T01:16:24;54.00;;;19.00;;
81298;SDS011;70766;53.170;18.160;2023-11-19T01:18:54;49.80;;;18.30;;
81298;SDS011;70766;53.170;18.160;2023-11-19T01:21:39;52.10;;;18.00;;
81298;SDS011;70766;53.170;18.160;2023-11-19T01:24:07;49.20;;;19.10;;
81298;SDS011;70766;53.170;18.160;2023-11-19T01:26:38;55.00;;;18.90;;
81298;SDS011;70766;53.170;18.160;2023-11-19T01:29:06;58.80;;;20.10;;
81298;SDS011;70766;53.170;18.160;2023-11-19T01:31:34;52.70;;;19.30;;
81298;SDS011;70766;53.170;18.160;2023-11-19T01:34:02;67.40;;;21.50;;
81298;SDS011;70766;53.170;18.160;2023-11-19T01:36:30;66.40;;;21.10;;
81298;SDS011;70766;53.170;18.160;2023-11-19T01:38:58;58.30;;;18.10;;
81298;SDS011;70766;53.170;18.160;2023-11-19T01:41:27;63.90;;;21.70;;
81298;SDS011;70766;53.170;18.160;2023-11-19T01:43:55;74.70;;;23.20;;
81298;SDS011;70766;53.170;18.160;2023-11-19T01:46:23;64.70;;;23.00;;
81298;SDS011;70766;53.170;18.160;2023-11-19T01:48:51;69.30;;;23.70;;
81298;SDS011;70766;53.170;18.160;2023-11-19T01:51:21;63.30;;;21.70;;
81298;SDS011;70766;53.170;18.160;2023-11-19T01:53:50;73.60;;;23.90;;
81298;SDS011;70766;53.170;18.160;2023-11-19T01:56:18;71.50;;;22.30;;
81298;SDS011;70766;53.170;18.160;2023-11-19T01:58:51;73.60;;;22.30;;
81298;SDS011;70766;53.170;18.160;2023-11-19T02:01:21;70.80;;;23.40;;
81298;SDS011;70766;53.170;18.160;2023-11-19T02:03:50;70.20;;;21.40;;
81298;SDS011;70766;53.170;18.160;2023-11-19T02:06:20;82.30;;;23.30;;
81298;SDS011;70766;53.170;18.160;2023-11-19T02:08:49;74.90;;;21.90;;
81298;SDS011;70766;53.170;18.160;2023-11-19T02:11:18;65.20;;;23.00;;
81298;SDS011;70766;53.170;18.160;2023-11-19T02:13:46;75.40;;;23.20;;
81298;SDS011;70766;53.170;18.160;2023-11-19T02:16:15;73.60;;;23.20;;
81298;SDS011;70766;53.170;18.160;2023-11-19T02:18:43;79.60;;;23.60;;
81298;SDS011;70766;53.170;18.160;2023-11-19T02:21:11;64.90;;;22.60;;
81298;SDS011;70766;53.170;18.160;2023-11-19T02:23:39;89.60;;;27.50;;
81298;SDS011;70766;53.170;18.160;2023-11-19T02:26:28;112.40;;;29.10;;
81298;SDS011;70766;53.170;18.160;2023-11-19T02:29:07;81.70;;;24.40;;
81298;SDS011;70766;53.170;18.160;2023-11-19T02:31:35;70.80;;;22.50;;
81298;SDS011;70766;53.170;18.160;2023-11-19T02:34:04;65.70;;;22.90;;
81298;SDS011;70766;53.170;18.160;2023-11-19T02:36:33;77.40;;;24.20;;
81298;SDS011;70766;53.170;18.160;2023-11-19T02:39:01;74.10;;;22.40;;
81298;SDS011;70766;53.170;18.160;2023-11-19T02:41:31;72.50;;;23.60;;
81298;SDS011;70766;53.170;18.160;2023-11-19T02:43:59;73.70;;;23.50;;
81298;SDS011;70766;53.170;18.160;2023-11-19T02:46:27;68.40;;;22.30;;
81298;SDS011;70766;53.170;18.160;2023-11-19T02:48:55;72.40;;;22.30;;
81298;SDS011;70766;53.170;18.160;2023-11-19T02:51:24;70.40;;;24.10;;
81298;SDS011;70766;53.170;18.160;2023-11-19T02:53:52;67.60;;;22.90;;
81298;SDS011;70766;53.170;18.160;2023-11-19T02:56:20;70.80;;;22.10;;
81298;SDS011;70766;53.170;18.160;2023-11-19T02:58:54;67.60;;;21.70;;
81298;SDS011;70766;53.170;18.160;2023-11-19T03:01:23;70.10;;;21.00;;
81298;SDS011;70766;53.170;18.160;2023-11-19T03:03:59;67.70;;;21.60;;
81298;SDS011;70766;53.170;18.160;2023-11-19T03:06:30;57.30;;;19.50;;
81298;SDS011;70766;53.170;18.160;2023-11-19T03:08:59;78.50;;;23.70;;
81298;SDS011;70766;53.170;18.160;2023-11-19T03:11:33;72.20;;;23.40;;
81298;SDS011;70766;53.170;18.160;2023-11-19T03:14:01;64.50;;;22.30;;
81298;SDS011;70766;53.170;18.160;2023-11-19T03:16:31;65.20;;;23.30;;
81298;SDS011;70766;53.170;18.160;2023-11-19T03:19:00;72.40;;;24.40;;
81298;SDS011;70766;53.170;18.160;2023-11-19T03:21:29;74.80;;;24.10;;
81298;SDS011;70766;53.170;18.160;2023-11-19T03:23:57;68.20;;;23.40;;
81298;SDS011;70766;53.170;18.160;2023-11-19T03:26:28;63.60;;;21.00;;
81298;SDS011;70766;53.170;18.160;2023-11-19T03:28:57;70.10;;;23.20;;
81298;SDS011;70766;53.170;18.160;2023-11-19T03:31:26;69.20;;;24.60;;
81298;SDS011;70766;53.170;18.160;2023-11-19T03:33:54;68.00;;;24.00;;
81298;SDS011;70766;53.170;18.160;2023-11-19T03:36:31;66.30;;;23.10;;
81298;SDS011;70766;53.170;18.160;2023-11-19T03:39:00;69.20;;;22.00;;
81298;SDS011;70766;53.170;18.160;2023-11-19T03:41:29;76.70;;;24.70;;
81298;SDS011;70766;53.170;18.160;2023-11-19T03:44:10;64.30;;;22.70;;
81298;SDS011;70766;53.170;18.160;2023-11-19T03:46:39;64.30;;;23.30;;
81298;SDS011;70766;53.170;18.160;2023-11-19T03:49:07;73.20;;;23.90;;
81298;SDS011;70766;53.170;18.160;2023-11-19T03:51:35;72.90;;;24.70;;
81298;SDS011;70766;53.170;18.160;2023-11-19T03:54:04;72.20;;;25.00;;
81298;SDS011;70766;53.170;18.160;2023-11-19T03:56:34;63.10;;;23.80;;
81298;SDS011;70766;53.170;18.160;2023-11-19T03:59:02;65.90;;;23.70;;
81298;SDS011;70766;53.170;18.160;2023-11-19T04:01:30;65.80;;;24.00;;
81298;SDS011;70766;53.170;18.160;2023-11-19T04:03:59;70.50;;;26.00;;
81298;SDS011;70766;53.170;18.160;2023-11-19T04:06:27;63.90;;;23.50;;
81298;SDS011;70766;53.170;18.160;2023-11-19T04:08:58;67.80;;;24.30;;
81298;SDS011;70766;53.170;18.160;2023-11-19T04:11:26;58.50;;;22.40;;
81298;SDS011;70766;53.170;18.160;2023-11-19T04:13:54;58.40;;;21.40;;
81298;SDS011;70766;53.170;18.160;2023-11-19T04:16:26;66.70;;;23.90;;
81298;SDS011;70766;53.170;18.160;2023-11-19T04:18:56;64.70;;;23.60;;
81298;SDS011;70766;53.170;18.160;2023-11-19T04:21:26;70.00;;;26.00;;
81298;SDS011;70766;53.170;18.160;2023-11-19T04:23:54;64.90;;;24.30;;
81298;SDS011;70766;53.170;18.160;2023-11-19T04:26:23;60.10;;;23.10;;
81298;SDS011;70766;53.170;18.160;2023-11-19T04:28:51;62.00;;;23.30;;
81298;SDS011;70766;53.170;18.160;2023-11-19T04:31:20;63.70;;;23.70;;
81298;SDS011;70766;53.170;18.160;2023-11-19T04:33:48;59.10;;;22.10;;
81298;SDS011;70766;53.170;18.160;2023-11-19T04:36:18;67.80;;;24.90;;
81298;SDS011;70766;53.170;18.160;2023-11-19T04:38:47;64.60;;;23.50;;
81298;SDS011;70766;53.170;18.160;2023-11-19T04:41:15;66.30;;;24.90;;
81298;SDS011;70766;53.170;18.160;2023-11-19T04:43:43;61.40;;;22.60;;
81298;SDS011;70766;53.170;18.160;2023-11-19T04:46:11;62.30;;;23.30;;
81298;SDS011;70766;53.170;18.160;2023-11-19T04:48:39;63.10;;;24.70;;
81298;SDS011;70766;53.170;18.160;2023-11-19T04:51:09;63.60;;;25.70;;
81298;SDS011;70766;53.170;18.160;2023-11-19T04:53:37;63.20;;;22.80;;
81298;SDS011;70766;53.170;18.160;2023-11-19T04:56:09;60.00;;;22.20;;
81298;SDS011;70766;53.170;18.160;2023-11-19T04:58:38;57.00;;;22.40;;
81298;SDS011;70766;53.170;18.160;2023-11-19T05:01:13;58.30;;;23.20;;
81298;SDS011;70766;53.170;18.160;2023-11-19T05:03:43;55.40;;;21.70;;
81298;SDS011;70766;53.170;18.160;2023-11-19T05:06:12;51.40;;;19.00;;
81298;SDS011;70766;53.170;18.160;2023-11-19T05:08:40;48.30;;;19.90;;
81298;SDS011;70766;53.170;18.160;2023-11-19T05:11:08;57.70;;;23.00;;
81298;SDS011;70766;53.170;18.160;2023-11-19T05:13:39;52.80;;;21.40;;
81298;SDS011;70766;53.170;18.160;2023-11-19T05:16:08;62.00;;;24.30;;
81298;SDS011;70766;53.170;18.160;2023-11-19T05:18:37;57.60;;;21.40;;
81298;SDS011;70766;53.170;18.160;2023-11-19T05:21:09;54.50;;;19.70;;
81298;SDS011;70766;53.170;18.160;2023-11-19T05:23:37;54.10;;;20.30;;
81298;SDS011;70766;53.170;18.160;2023-11-19T05:26:06;56.70;;;22.00;;
81298;SDS011;70766;53.170;18.160;2023-11-19T05:28:37;54.00;;;20.40;;
81298;SDS011;70766;53.170;18.160;2023-11-19T05:31:06;49.90;;;20.00;;
81298;SDS011;70766;53.170;18.160;2023-11-19T05:33:35;57.30;;;21.00;;
81298;SDS011;70766;53.170;18.160;2023-11-19T05:36:03;53.20;;;21.40;;
81298;SDS011;70766;53.170;18.160;2023-11-19T05:38:32;57.20;;;21.80;;
81298;SDS011;70766;53.170;18.160;2023-11-19T05:41:01;51.60;;;20.20;;
81298;SDS011;70766;53.170;18.160;2023-11-19T05:43:33;44.40;;;18.30;;
81298;SDS011;70766;53.170;18.160;2023-11-19T05:46:01;49.70;;;20.10;;
81298;SDS011;70766;53.170;18.160;2023-11-19T05:48:29;53.80;;;20.30;;
81298;SDS011;70766;53.170;18.160;2023-11-19T05:50:57;48.90;;;17.90;;
81298;SDS011;70766;53.170;18.160;2023-11-19T05:53:26;47.50;;;17.90;;
81298;SDS011;70766;53.170;18.160;2023-11-19T05:55:54;50.10;;;17.60;;
81298;SDS011;70766;53.170;18.160;2023-11-19T05:58:25;47.10;;;17.80;;
81298;SDS011;70766;53.170;18.160;2023-11-19T06:00:56;46.60;;;18.00;;
81298;SDS011;70766;53.170;18.160;2023-11-19T06:03:25;48.10;;;19.60;;
81298;SDS011;70766;53.170;18.160;2023-11-19T06:05:53;46.80;;;18.20;;
81298;SDS011;70766;53.170;18.160;2023-11-19T06:08:22;40.10;;;16.30;;
81298;SDS011;70766;53.170;18.160;2023-11-19T06:10:50;45.20;;;18.90;;
81298;SDS011;70766;53.170;18.160;2023-11-19T06:13:19;39.10;;;15.20;;
81298;SDS011;70766;53.170;18.160;2023-11-19T06:15:51;43.50;;;15.50;;
81298;SDS011;70766;53.170;18.160;2023-11-19T06:18:19;38.90;;;15.80;;
81298;SDS011;70766;53.170;18.160;2023-11-19T06:20:51;39.30;;;15.30;;
81298;SDS011;70766;53.170;18.160;2023-11-19T06:23:19;41.00;;;16.50;;
81298;SDS011;70766;53.170;18.160;2023-11-19T06:25:47;38.60;;;15.80;;
81298;SDS011;70766;53.170;18.160;2023-11-19T06:28:15;39.90;;;16.00;;
81298;SDS011;70766;53.170;18.160;2023-11-19T06:30:44;39.70;;;15.90;;
81298;SDS011;70766;53.170;18.160;2023-11-19T06:33:15;35.20;;;15.50;;
81298;SDS011;70766;53.170;18.160;2023-11-19T06:35:44;35.60;;;13.90;;
81298;SDS011;70766;53.170;18.160;2023-11-19T06:38:12;37.30;;;14.10;;
81298;SDS011;70766;53.170;18.160;2023-11-19T06:40:40;37.10;;;13.20;;
81298;SDS011;70766;53.170;18.160;2023-11-19T06:43:08;33.50;;;14.10;;
81298;SDS011;70766;53.170;18.160;2023-11-19T06:45:37;34.10;;;13.80;;
81298;SDS011;70766;53.170;18.160;2023-11-19T06:48:05;32.80;;;13.50;;
81298;SDS011;70766;53.170;18.160;2023-11-19T06:50:33;35.60;;;15.30;;
81298;SDS011;70766;53.170;18.160;2023-11-19T06:53:01;34.90;;;13.80;;
81298;SDS011;70766;53.170;18.160;2023-11-19T06:55:31;36.20;;;13.80;;
81298;SDS011;70766;53.170;18.160;2023-11-19T06:58:00;34.90;;;13.10;;
81298;SDS011;70766;53.170;18.160;2023-11-19T07:00:30;33.40;;;13.20;;
81298;SDS011;70766;53.170;18.160;2023-11-19T07:03:00;32.20;;;13.90;;
81298;SDS011;70766;53.170;18.160;2023-11-19T07:05:29;32.40;;;13.40;;
81298;SDS011;70766;53.170;18.160;2023-11-19T07:07:58;29.90;;;12.90;;
81298;SDS011;70766;53.170;18.160;2023-11-19T07:10:26;30.90;;;12.60;;
81298;SDS011;70766;53.170;18.160;2023-11-19T07:12:54;33.10;;;13.10;;
81298;SDS011;70766;53.170;18.160;2023-11-19T07:15:22;32.60;;;14.50;;
81298;SDS011;70766;53.170;18.160;2023-11-19T07:17:50;32.50;;;13.30;;
81298;SDS011;70766;53.170;18.160;2023-11-19T07:20:29;31.30;;;13.00;;
81298;SDS011;70766;53.170;18.160;2023-11-19T07:22:59;30.70;;;12.80;;
81298;SDS011;70766;53.170;18.160;2023-11-19T07:25:27;32.50;;;14.00;;
81298;SDS011;70766;53.170;18.160;2023-11-19T07:27:55;29.90;;;13.10;;
81298;SDS011;70766;53.170;18.160;2023-11-19T07:30:24;30.70;;;13.50;;
81298;SDS011;70766;53.170;18.160;2023-11-19T07:32:51;37.80;;;15.40;;
81298;SDS011;70766;53.170;18.160;2023-11-19T07:35:20;33.40;;;13.10;;
81298;SDS011;70766;53.170;18.160;2023-11-19T07:37:49;34.50;;;15.00;;
81298;SDS011;70766;53.170;18.160;2023-11-19T07:40:18;31.70;;;13.50;;
81298;SDS011;70766;53.170;18.160;2023-11-19T07:42:47;34.40;;;13.90;;
81298;SDS011;70766;53.170;18.160;2023-11-19T07:45:16;32.60;;;12.70;;
81298;SDS011;70766;53.170;18.160;2023-11-19T07:47:45;34.10;;;13.60;;
81298;SDS011;70766;53.170;18.160;2023-11-19T07:50:13;38.20;;;14.30;;
81298;SDS011;70766;53.170;18.160;2023-11-19T07:52:44;34.20;;;14.20;;
81298;SDS011;70766;53.170;18.160;2023-11-19T07:55:13;34.40;;;14.30;;
81298;SDS011;70766;53.170;18.160;2023-11-19T07:57:41;34.60;;;13.10;;
81298;SDS011;70766;53.170;18.160;2023-11-19T08:00:10;31.40;;;12.30;;
81298;SDS011;70766;53.170;18.160;2023-11-19T08:02:42;32.90;;;13.80;;
81298;SDS011;70766;53.170;18.160;2023-11-19T08:05:11;35.40;;;13.90;;
81298;SDS011;70766;53.170;18.160;2023-11-19T08:07:40;31.90;;;13.30;;
81298;SDS011;70766;53.170;18.160;2023-11-19T08:10:08;35.50;;;14.10;;
81298;SDS011;70766;53.170;18.160;2023-11-19T08:12:39;29.60;;;11.10;;
81298;SDS011;70766;53.170;18.160;2023-11-19T08:15:07;33.30;;;13.20;;
81298;SDS011;70766;53.170;18.160;2023-11-19T08:17:36;32.80;;;13.60;;
81298;SDS011;70766;53.170;18.160;2023-11-19T08:20:05;28.00;;;12.50;;
81298;SDS011;70766;53.170;18.160;2023-11-19T08:22:38;36.40;;;14.40;;
81298;SDS011;70766;53.170;18.160;2023-11-19T08:25:07;37.10;;;14.70;;
81298;SDS011;70766;53.170;18.160;2023-11-19T08:27:36;27.90;;;11.40;;
81298;SDS011;70766;53.170;18.160;2023-11-19T08:30:04;32.70;;;12.90;;
81298;SDS011;70766;53.170;18.160;2023-11-19T08:32:34;29.40;;;12.00;;
81298;SDS011;70766;53.170;18.160;2023-11-19T08:35:02;34.90;;;14.40;;
81298;SDS011;70766;53.170;18.160;2023-11-19T08:37:32;32.10;;;13.20;;
81298;SDS011;70766;53.170;18.160;2023-11-19T08:40:01;29.50;;;12.30;;
81298;SDS011;70766;53.170;18.160;2023-11-19T08:42:29;32.60;;;12.90;;
81298;SDS011;70766;53.170;18.160;2023-11-19T08:44:57;31.60;;;12.70;;
81298;SDS011;70766;53.170;18.160;2023-11-19T08:47:25;32.00;;;13.00;;
81298;SDS011;70766;53.170;18.160;2023-11-19T08:49:54;28.10;;;11.40;;
81298;SDS011;70766;53.170;18.160;2023-11-19T08:52:25;31.40;;;13.80;;
81298;SDS011;70766;53.170;18.160;2023-11-19T08:54:53;30.80;;;12.90;;
81298;SDS011;70766;53.170;18.160;2023-11-19T08:57:21;34.00;;;14.00;;
81298;SDS011;70766;53.170;18.160;2023-11-19T08:59:49;37.00;;;15.00;;
81298;SDS011;70766;53.170;18.160;2023-11-19T09:02:18;36.50;;;16.80;;
81298;SDS011;70766;53.170;18.160;2023-11-19T09:04:46;36.70;;;14.60;;
81298;SDS011;70766;53.170;18.160;2023-11-19T09:07:23;34.10;;;14.80;;
81298;SDS011;70766;53.170;18.160;2023-11-19T09:09:51;35.30;;;14.50;;
81298;SDS011;70766;53.170;18.160;2023-11-19T09:12:19;35.10;;;14.20;;
81298;SDS011;70766;53.170;18.160;2023-11-19T09:14:48;39.40;;;15.90;;
81298;SDS011;70766;53.170;18.160;2023-11-19T09:17:17;32.10;;;13.70;;
81298;SDS011;70766;53.170;18.160;2023-11-19T09:19:46;34.00;;;14.60;;
81298;SDS011;70766;53.170;18.160;2023-11-19T09:22:14;36.20;;;13.80;;
81298;SDS011;70766;53.170;18.160;2023-11-19T09:24:42;35.60;;;14.90;;
81298;SDS011;70766;53.170;18.160;2023-11-19T09:27:12;31.70;;;13.20;;
81298;SDS011;70766;53.170;18.160;2023-11-19T09:29:41;33.30;;;15.00;;
81298;SDS011;70766;53.170;18.160;2023-11-19T09:32:11;36.80;;;14.70;;
81298;SDS011;70766;53.170;18.160;2023-11-19T09:34:46;36.50;;;14.80;;
81298;SDS011;70766;53.170;18.160;2023-11-19T09:37:24;36.50;;;14.70;;
81298;SDS011;70766;53.170;18.160;2023-11-19T09:39:52;36.00;;;15.50;;
81298;SDS011;70766;53.170;18.160;2023-11-19T09:42:21;37.50;;;15.30;;
81298;SDS011;70766;53.170;18.160;2023-11-19T09:44:49;37.30;;;15.10;;
81298;SDS011;70766;53.170;18.160;2023-11-19T09:47:17;33.60;;;14.10;;
81298;SDS011;70766;53.170;18.160;2023-11-19T09:49:48;36.50;;;15.10;;
81298;SDS011;70766;53.170;18.160;2023-11-19T09:52:17;34.60;;;14.90;;
81298;SDS011;70766;53.170;18.160;2023-11-19T09:54:46;38.90;;;15.20;;
81298;SDS011;70766;53.170;18.160;2023-11-19T09:57:14;31.40;;;11.20;;
81298;SDS011;70766;53.170;18.160;2023-11-19T09:59:45;35.10;;;15.80;;
81298;SDS011;70766;53.170;18.160;2023-11-19T10:02:23;37.00;;;15.40;;
81298;SDS011;70766;53.170;18.160;2023-11-19T10:04:52;35.40;;;15.50;;
81298;SDS011;70766;53.170;18.160;2023-11-19T10:07:22;35.10;;;15.20;;
81298;SDS011;70766;53.170;18.160;2023-11-19T10:09:54;37.50;;;15.90;;
81298;SDS011;70766;53.170;18.160;2023-11-19T10:12:22;37.60;;;16.00;;
81298;SDS011;70766;53.170;18.160;2023-11-19T10:14:50;35.80;;;15.20;;
81298;SDS011;70766;53.170;18.160;2023-11-19T10:17:19;40.90;;;15.90;;
81298;SDS011;70766;53.170;18.160;2023-11-19T10:19:47;38.70;;;16.50;;
81298;SDS011;70766;53.170;18.160;2023-11-19T10:22:18;42.30;;;17.50;;
81298;SDS011;70766;53.170;18.160;2023-11-19T10:24:47;40.60;;;16.30;;
81298;SDS011;70766;53.170;18.160;2023-11-19T10:27:26;37.70;;;16.20;;
81298;SDS011;70766;53.170;18.160;2023-11-19T10:29:54;44.70;;;17.00;;
81298;SDS011;70766;53.170;18.160;2023-11-19T10:32:28;38.60;;;16.90;;
81298;SDS011;70766;53.170;18.160;2023-11-19T10:35:06;43.80;;;17.90;;
81298;SDS011;70766;53.170;18.160;2023-11-19T10:37:38;39.90;;;16.40;;
81298;SDS011;70766;53.170;18.160;2023-11-19T10:40:11;43.00;;;17.80;;
81298;SDS011;70766;53.170;18.160;2023-11-19T10:42:41;45.30;;;17.10;;
81298;SDS011;70766;53.170;18.160;2023-11-19T10:45:21;43.70;;;16.60;;
81298;SDS011;70766;53.170;18.160;2023-11-19T10:51:36;37.30;;;14.60;;
81298;SDS011;70766;53.170;18.160;2023-11-19T10:54:09;41.60;;;17.20;;
81298;SDS011;70766;53.170;18.160;2023-11-19T11:00:19;44.70;;;17.70;;
81298;SDS011;70766;53.170;18.160;2023-11-19T11:02:51;43.50;;;16.20;;
81298;SDS011;70766;53.170;18.160;2023-11-19T11:05:32;39.60;;;16.50;;
81298;SDS011;70766;53.170;18.160;2023-11-19T11:08:02;46.40;;;17.50;;
81298;SDS011;70766;53.170;18.160;2023-11-19T11:10:53;40.60;;;15.70;;
81298;SDS011;70766;53.170;18.160;2023-11-19T11:13:26;39.40;;;15.20;;
81298;SDS011;70766;53.170;18.160;2023-11-19T11:15:59;46.80;;;19.00;;
81298;SDS011;70766;53.170;18.160;2023-11-19T11:18:29;44.00;;;17.30;;
81298;SDS011;70766;53.170;18.160;2023-11-19T11:21:02;50.50;;;17.30;;
81298;SDS011;70766;53.170;18.160;2023-11-19T11:23:53;50.10;;;18.90;;
81298;SDS011;70766;53.170;18.160;2023-11-19T11:29:20;46.10;;;17.80;;
81298;SDS011;70766;53.170;18.160;2023-11-19T11:34:58;49.70;;;17.50;;
81298;SDS011;70766;53.170;18.160;2023-11-19T11:37:45;47.20;;;16.90;;
81298;SDS011;70766;53.170;18.160;2023-11-19T11:40:16;52.30;;;18.70;;
81298;SDS011;70766;53.170;18.160;2023-11-19T11:42:46;52.10;;;17.60;;
81298;SDS011;70766;53.170;18.160;2023-11-19T11:45:15;46.00;;;16.60;;
81298;SDS011;70766;53.170;18.160;2023-11-19T11:50:22;58.10;;;20.60;;
81298;SDS011;70766;53.170;18.160;2023-11-19T11:55:36;53.10;;;18.30;;
81298;SDS011;70766;53.170;18.160;2023-11-19T11:58:20;64.50;;;20.50;;
81298;SDS011;70766;53.170;18.160;2023-11-19T12:00:51;55.50;;;19.80;;
81298;SDS011;70766;53.170;18.160;2023-11-19T12:03:21;57.40;;;19.70;;
81298;SDS011;70766;53.170;18.160;2023-11-19T12:05:50;62.60;;;20.00;;
81298;SDS011;70766;53.170;18.160;2023-11-19T12:08:19;56.60;;;18.10;;
81298;SDS011;70766;53.170;18.160;2023-11-19T12:10:56;58.80;;;20.00;;
81298;SDS011;70766;53.170;18.160;2023-11-19T12:16:40;59.80;;;20.50;;
81298;SDS011;70766;53.170;18.160;2023-11-19T12:19:10;57.60;;;19.00;;
81298;SDS011;70766;53.170;18.160;2023-11-19T12:21:41;60.90;;;20.60;;
81298;SDS011;70766;53.170;18.160;2023-11-19T12:24:09;63.50;;;19.30;;
81298;SDS011;70766;53.170;18.160;2023-11-19T12:26:43;53.10;;;17.70;;
81298;SDS011;70766;53.170;18.160;2023-11-19T12:29:49;52.60;;;16.30;;
81298;SDS011;70766;53.170;18.160;2023-11-19T12:32:36;50.70;;;16.90;;
81298;SDS011;70766;53.170;18.160;2023-11-19T12:35:13;51.60;;;16.50;;
81298;SDS011;70766;53.170;18.160;2023-11-19T12:37:48;40.70;;;16.00;;
81298;SDS011;70766;53.170;18.160;2023-11-19T12:40:24;46.30;;;17.00;;
81298;SDS011;70766;53.170;18.160;2023-11-19T12:42:59;47.40;;;16.30;;
81298;SDS011;70766;53.170;18.160;2023-11-19T12:45:37;33.70;;;12.30;;
81298;SDS011;70766;53.170;18.160;2023-11-19T12:48:33;43.00;;;14.70;;
81298;SDS011;70766;53.170;18.160;2023-11-19T12:51:22;38.30;;;15.00;;
81298;SDS011;70766;53.170;18.160;2023-11-19T12:53:58;40.90;;;14.40;;
81298;SDS011;70766;53.170;18.160;2023-11-19T12:56:29;43.50;;;16.00;;
81298;SDS011;70766;53.170;18.160;2023-11-19T12:59:12;46.20;;;16.90;;
81298;SDS011;70766;53.170;18.160;2023-11-19T13:01:41;35.00;;;13.30;;
81298;SDS011;70766;53.170;18.160;2023-11-19T13:04:19;39.80;;;15.00;;
81298;SDS011;70766;53.170;18.160;2023-11-19T13:06:54;43.70;;;15.70;;
81298;SDS011;70766;53.170;18.160;2023-11-19T13:09:28;44.80;;;15.80;;
81298;SDS011;70766;53.170;18.160;2023-11-19T13:11:56;33.30;;;11.70;;
81298;SDS011;70766;53.170;18.160;2023-11-19T13:14:35;36.10;;;13.40;;
81298;SDS011;70766;53.170;18.160;2023-11-19T13:17:07;35.50;;;12.20;;
81298;SDS011;70766;53.170;18.160;2023-11-19T13:19:36;40.70;;;15.40;;
81298;SDS011;70766;53.170;18.160;2023-11-19T13:22:04;41.20;;;15.10;;
81298;SDS011;70766;53.170;18.160;2023-11-19T13:24:33;46.20;;;16.60;;
81298;SDS011;70766;53.170;18.160;2023-11-19T13:27:01;39.90;;;13.80;;
81298;SDS011;70766;53.170;18.160;2023-11-19T13:29:30;36.60;;;13.10;;
81298;SDS011;70766;53.170;18.160;2023-11-19T13:32:00;43.00;;;15.80;;
81298;SDS011;70766;53.170;18.160;2023-11-19T13:34:29;48.30;;;15.60;;
81298;SDS011;70766;53.170;18.160;2023-11-19T13:36:58;31.70;;;12.50;;
81298;SDS011;70766;53.170;18.160;2023-11-19T13:39:27;40.30;;;15.60;;
81298;SDS011;70766;53.170;18.160;2023-11-19T13:41:55;43.40;;;14.30;;
81298;SDS011;70766;53.170;18.160;2023-11-19T13:44:40;44.90;;;15.90;;
81298;SDS011;70766;53.170;18.160;2023-11-19T13:47:09;43.30;;;15.20;;
81298;SDS011;70766;53.170;18.160;2023-11-19T13:49:41;41.60;;;15.00;;
81298;SDS011;70766;53.170;18.160;2023-11-19T13:52:10;38.20;;;14.10;;
81298;SDS011;70766;53.170;18.160;2023-11-19T13:54:39;46.30;;;15.80;;
81298;SDS011;70766;53.170;18.160;2023-11-19T13:57:08;42.50;;;14.40;;
81298;SDS011;70766;53.170;18.160;2023-11-19T13:59:40;46.40;;;15.40;;
81298;SDS011;70766;53.170;18.160;2023-11-19T14:02:09;40.40;;;13.40;;
81298;SDS011;70766;53.170;18.160;2023-11-19T14:04:38;43.90;;;15.80;;
81298;SDS011;70766;53.170;18.160;2023-11-19T14:07:06;38.20;;;14.00;;
81298;SDS011;70766;53.170;18.160;2023-11-19T14:09:35;45.00;;;15.00;;
81298;SDS011;70766;53.170;18.160;2023-11-19T14:12:03;39.80;;;12.90;;
81298;SDS011;70766;53.170;18.160;2023-11-19T14:14:31;48.20;;;15.80;;
81298;SDS011;70766;53.170;18.160;2023-11-19T14:17:03;39.60;;;14.10;;
81298;SDS011;70766;53.170;18.160;2023-11-19T14:19:53;41.80;;;14.20;;
81298;SDS011;70766;53.170;18.160;2023-11-19T14:22:30;41.80;;;15.50;;
81298;SDS011;70766;53.170;18.160;2023-11-19T14:25:17;35.70;;;12.20;;
81298;SDS011;70766;53.170;18.160;2023-11-19T14:28:09;37.40;;;14.10;;
81298;SDS011;70766;53.170;18.160;2023-11-19T14:30:40;40.90;;;14.30;;
81298;SDS011;70766;53.170;18.160;2023-11-19T14:33:15;46.70;;;15.40;;
81298;SDS011;70766;53.170;18.160;2023-11-19T14:36:41;36.00;;;12.60;;
81298;SDS011;70766;53.170;18.160;2023-11-19T14:39:22;44.50;;;16.10;;
81298;SDS011;70766;53.170;18.160;2023-11-19T14:42:05;41.10;;;14.20;;
81298;SDS011;70766;53.170;18.160;2023-11-19T14:44:38;40.90;;;14.30;;
81298;SDS011;70766;53.170;18.160;2023-11-19T14:47:13;38.70;;;13.50;;
81298;SDS011;70766;53.170;18.160;2023-11-19T14:49:45;40.40;;;13.40;;
81298;SDS011;70766;53.170;18.160;2023-11-19T14:52:15;38.50;;;14.50;;